createdAt,value
2022-09-12T00:02:37.542Z,97143.63
2022-09-12T00:06:37.282Z,97147.00
2022-09-12T00:10:39.884Z,97138.72
2022-09-12T00:14:36.880Z,97122.31
2022-09-12T00:18:34.447Z,97144.69
2022-09-12T00:22:31.451Z,97120.44
2022-09-12T00:26:28.964Z,97136.53
2022-09-12T00:30:26.102Z,97110.41
2022-09-12T00:34:23.101Z,97117.47
2022-09-12T00:38:21.435Z,97126.41
2022-09-12T00:42:18.376Z,97115.88
2022-09-12T00:46:24.579Z,97114.56
2022-09-12T00:50:21.550Z,97116.19
2022-09-12T00:54:30.252Z,97108.97
2022-09-12T00:58:40.155Z,97121.56
2022-09-12T01:02:37.275Z,97106.47
2022-09-12T01:06:40.578Z,97116.78
2022-09-12T01:10:40.404Z,97111.09
2022-09-12T01:14:39.031Z,97087.34
2022-09-12T01:18:59.778Z,97071.44
2022-09-12T01:23:17.550Z,97096.03
2022-09-12T01:27:43.949Z,97104.16
2022-09-12T01:31:49.271Z,97097.66
2022-09-12T01:36:17.470Z,97104.06
2022-09-12T01:40:31.615Z,97102.47
2022-09-12T01:44:51.583Z,97102.47
2022-09-12T01:49:02.374Z,97030.78
2022-09-12T01:53:23.256Z,97062.88
2022-09-12T01:57:37.306Z,97090.22
2022-09-12T02:01:55.090Z,97086.09
2022-09-12T02:06:04.148Z,97082.66
2022-09-12T02:10:17.999Z,97095.81
2022-09-12T02:14:40.996Z,97090.59
2022-09-12T02:18:49.264Z,97088.47
2022-09-12T02:22:50.878Z,97070.81
2022-09-12T02:26:56.089Z,97068.47
2022-09-12T02:31:23.738Z,97081.25
2022-09-12T02:36:15.499Z,97029.09
2022-09-12T02:40:14.049Z,97050.25
2022-09-12T02:44:11.380Z,97045.97
2022-09-12T02:48:34.592Z,97077.06
2022-09-12T02:52:32.697Z,97059.19
2022-09-12T02:56:31.411Z,97061.25
2022-09-12T03:00:37.848Z,97084.16
2022-09-12T03:04:53.724Z,97056.78
2022-09-12T03:09:37.866Z,97078.56
2022-09-12T03:13:51.585Z,97078.28
2022-09-12T03:18:09.756Z,97079.09
2022-09-12T03:22:33.582Z,97045.69
2022-09-12T03:27:02.274Z,97079.44
2022-09-12T03:30:59.754Z,97085.19
2022-09-12T03:34:56.760Z,97071.22
2022-09-12T03:38:53.966Z,97062.28
2022-09-12T03:42:51.037Z,97071.31
2022-09-12T03:46:48.050Z,97056.91
2022-09-12T03:50:45.039Z,97059.72
2022-09-12T03:54:42.002Z,97085.16
2022-09-12T03:58:39.751Z,97078.88
2022-09-12T04:02:37.199Z,97039.84
2022-09-12T04:06:34.189Z,97079.22
2022-09-12T04:10:34.811Z,97077.63
2022-09-12T04:14:34.520Z,97039.41
2022-09-12T04:18:32.035Z,97072.13
2022-09-12T04:22:34.033Z,97062.28
2022-09-12T04:26:32.220Z,97043.19
2022-09-12T04:30:29.398Z,97070.56
2022-09-12T04:34:26.453Z,97087.25
2022-09-12T04:38:23.486Z,97072.22
2022-09-12T04:42:20.410Z,97076.28
2022-09-12T04:46:21.820Z,97079.78
2022-09-12T04:50:19.293Z,97082.28
2022-09-12T04:54:19.882Z,97083.47
2022-09-12T04:58:16.806Z,97082.66
2022-09-12T05:02:13.773Z,97085.13
2022-09-12T05:06:22.470Z,97068.16
2022-09-12T05:10:19.421Z,97089.66
2022-09-12T05:14:16.489Z,97077.13
2022-09-12T05:18:13.437Z,97086.00
2022-09-12T05:22:10.888Z,97075.53
2022-09-12T05:26:09.121Z,97076.56
2022-09-12T05:30:07.035Z,97084.13
2022-09-12T05:34:04.743Z,97075.66
2022-09-12T05:38:01.733Z,97097.31
2022-09-12T05:41:58.676Z,97105.31
2022-09-12T05:46:08.223Z,97107.06
2022-09-12T05:50:10.871Z,97069.59
2022-09-12T05:54:12.643Z,97077.81
2022-09-12T05:58:10.524Z,97104.00
2022-09-12T06:02:17.819Z,97101.00
2022-09-12T06:06:21.691Z,97080.00
2022-09-12T06:10:19.907Z,97123.78
2022-09-12T06:14:19.576Z,97090.00
2022-09-12T06:18:16.680Z,97067.84
2022-09-12T06:22:16.270Z,97117.88
2022-09-12T06:26:16.229Z,97019.88
2022-09-12T06:30:13.728Z,97080.00
2022-09-12T06:34:17.919Z,97101.00
2022-09-12T06:38:14.968Z,97110.91
2022-09-12T06:42:12.949Z,97082.09
2022-09-12T06:46:11.421Z,97100.09
2022-09-12T06:50:09.200Z,97101.91
2022-09-12T06:54:13.457Z,97105.69
2022-09-12T06:58:10.954Z,97086.69
2022-09-12T07:02:10.047Z,97108.69
2022-09-12T07:06:11.445Z,97112.59
2022-09-12T07:10:08.834Z,97115.97
2022-09-12T07:14:08.486Z,97115.66
2022-09-12T07:18:05.502Z,97091.28
2022-09-12T07:22:02.539Z,97117.72
2022-09-12T07:26:01.329Z,97087.50
2022-09-12T07:29:58.692Z,97096.03
2022-09-12T07:33:56.196Z,97100.59
2022-09-12T07:37:53.288Z,97093.78
2022-09-12T07:41:50.275Z,97092.38
2022-09-12T07:45:47.802Z,97126.88
2022-09-12T07:49:45.071Z,97098.56
2022-09-12T07:53:43.434Z,97108.72
2022-09-12T07:57:40.479Z,97115.44
2022-09-12T08:01:37.660Z,97108.56
2022-09-12T08:05:35.124Z,97125.25
2022-09-12T08:09:32.374Z,97129.41
2022-09-12T08:13:31.085Z,97126.44
2022-09-12T08:17:29.631Z,97120.41
2022-09-12T08:21:30.371Z,97132.50
2022-09-12T08:25:27.294Z,97130.97
2022-09-12T08:29:24.217Z,97114.28
2022-09-12T08:33:22.351Z,97134.22
2022-09-12T08:37:19.863Z,97131.84
2022-09-12T08:41:46.376Z,97135.13
2022-09-12T08:46:02.394Z,97128.78
2022-09-12T08:50:08.949Z,97135.31
2022-09-12T08:54:21.041Z,97135.56
2022-09-12T08:58:24.587Z,97095.81
2022-09-12T09:02:43.197Z,97132.47
2022-09-12T09:07:20.692Z,97131.63
2022-09-12T09:11:34.420Z,97115.47
2022-09-12T09:16:02.369Z,97123.66
2022-09-12T09:20:41.312Z,97126.13
2022-09-12T09:24:53.442Z,97100.09
2022-09-12T09:29:18.084Z,97120.41
2022-09-12T09:33:33.792Z,97098.00
2022-09-12T09:37:43.144Z,97107.75
2022-09-12T09:41:51.013Z,97109.50
2022-09-12T09:45:48.175Z,97111.63
2022-09-12T09:49:45.801Z,97106.19
2022-09-12T09:53:50.491Z,97108.31
2022-09-12T09:57:47.914Z,97088.78
2022-09-12T10:02:06.013Z,97111.03
2022-09-12T10:06:20.998Z,97100.25
2022-09-12T10:10:22.836Z,97095.97
2022-09-12T10:14:41.835Z,97089.34
2022-09-12T10:18:43.203Z,97086.06
2022-09-12T10:22:48.449Z,97077.50
2022-09-12T10:26:56.949Z,97071.78
2022-09-12T10:30:56.384Z,97051.94
2022-09-12T10:35:05.912Z,97055.97
2022-09-12T10:39:04.302Z,97061.81
2022-09-12T10:43:03.620Z,97079.13
2022-09-12T10:47:21.659Z,97074.22
2022-09-12T10:51:28.888Z,97069.34
2022-09-12T10:55:35.002Z,97076.03
2022-09-12T11:00:16.705Z,97059.44
2022-09-12T11:04:32.565Z,97048.03
2022-09-12T11:09:10.843Z,97051.50
2022-09-12T11:13:31.184Z,97057.94
2022-09-12T11:17:54.232Z,97054.22
2022-09-12T11:22:33.983Z,97047.78
2022-09-12T11:27:05.038Z,97038.41
2022-09-12T11:31:44.999Z,97037.13
2022-09-12T11:35:55.267Z,97026.34
2022-09-12T11:39:56.782Z,97032.44
2022-09-12T11:44:21.755Z,97028.34
2022-09-12T11:49:01.138Z,97019.50
2022-09-12T11:53:12.561Z,97016.84
2022-09-12T11:57:33.858Z,97026.28
2022-09-12T12:01:43.937Z,97015.72
2022-09-12T12:06:01.561Z,97013.94
2022-09-12T12:09:58.598Z,97012.22
2022-09-12T12:14:06.206Z,97013.91
2022-09-12T12:18:24.826Z,97020.69
2022-09-12T12:22:24.869Z,97016.47
2022-09-12T12:26:42.852Z,97003.91
2022-09-12T12:30:41.018Z,97003.63
2022-09-12T12:34:48.157Z,96988.75
2022-09-12T12:38:47.013Z,96989.13
2022-09-12T12:42:44.009Z,96992.63
2022-09-12T12:46:41.111Z,96980.97
2022-09-12T12:50:38.486Z,96982.88
2022-09-12T12:54:54.178Z,96978.72
2022-09-12T12:59:01.327Z,96970.09
2022-09-12T13:03:08.879Z,96965.19
2022-09-12T13:07:09.213Z,96970.53
2022-09-12T13:11:27.869Z,96958.25
2022-09-12T13:15:37.043Z,96955.44
2022-09-12T13:19:39.564Z,96946.44
2022-09-12T13:23:36.673Z,96936.44
2022-09-12T13:27:33.620Z,96936.19
2022-09-12T13:31:31.485Z,96921.66
2022-09-12T13:36:13.835Z,96924.28
2022-09-12T13:41:05.109Z,96912.97
2022-09-12T13:45:23.013Z,96911.19
2022-09-12T13:49:40.932Z,96907.66
2022-09-12T13:53:47.918Z,96901.75
2022-09-12T13:58:00.383Z,96898.16
2022-09-12T14:01:57.351Z,96908.88
2022-09-12T14:05:57.498Z,96901.69
2022-09-12T14:10:00.891Z,96904.25
2022-09-12T14:13:58.487Z,96904.94
2022-09-12T14:18:01.573Z,96897.28
2022-09-12T14:21:59.097Z,96912.78
2022-09-12T14:26:00.154Z,96907.00
2022-09-12T14:30:07.549Z,96885.22
2022-09-12T14:34:19.839Z,96898.66
2022-09-12T14:38:16.831Z,96903.50
2022-09-12T14:42:21.335Z,96882.28
2022-09-12T14:46:26.620Z,96889.75
2022-09-12T14:50:35.005Z,96887.97
2022-09-12T14:54:33.053Z,96886.53
2022-09-12T14:58:30.137Z,96885.59
2022-09-12T15:02:27.559Z,96887.41
2022-09-12T15:06:33.347Z,96879.28
2022-09-12T15:10:37.061Z,96878.50
2022-09-12T15:14:34.210Z,96864.78
2022-09-12T15:18:31.151Z,96876.72
2022-09-12T15:22:28.126Z,96875.91
2022-09-12T15:26:30.615Z,96871.03
2022-09-12T15:30:27.923Z,96873.03
2022-09-12T15:34:24.913Z,96879.28
2022-09-12T15:38:26.151Z,96870.41
2022-09-12T15:42:30.129Z,96860.19
2022-09-12T15:46:27.256Z,96865.00
2022-09-12T15:50:28.532Z,96856.72
2022-09-12T15:54:25.870Z,96862.66
2022-09-12T15:58:23.023Z,96856.56
2022-09-12T16:02:20.055Z,96863.56
2022-09-12T16:06:17.119Z,96855.13
2022-09-12T16:10:22.985Z,96846.31
2022-09-12T16:14:20.548Z,96851.38
2022-09-12T16:18:17.635Z,96818.84
2022-09-12T16:22:14.599Z,96850.00
2022-09-12T16:26:11.695Z,96850.00
2022-09-12T16:30:11.196Z,96845.88
2022-09-12T16:34:09.763Z,96837.03
2022-09-12T16:38:08.451Z,96823.72
2022-09-12T16:42:06.846Z,96817.00
2022-09-12T16:46:12.306Z,96811.63
2022-09-12T16:50:10.850Z,96822.28
2022-09-12T16:54:09.476Z,96807.44
2022-09-12T16:58:07.699Z,96807.63
2022-09-12T17:02:06.616Z,96817.31
2022-09-12T17:06:18.851Z,96788.00
2022-09-12T17:10:16.338Z,96795.78
2022-09-12T17:14:13.971Z,96809.41
2022-09-12T17:18:10.949Z,96819.19
2022-09-12T17:22:09.589Z,96801.00
2022-09-12T17:26:08.080Z,96807.06
2022-09-12T17:30:06.123Z,96810.28
2022-09-12T17:34:04.450Z,96819.75
2022-09-12T17:38:04.290Z,96809.13
2022-09-12T17:42:06.662Z,96796.69
2022-09-12T17:46:06.981Z,96807.34
2022-09-12T17:50:30.325Z,96797.22
2022-09-12T17:54:25.142Z,96819.28
2022-09-12T17:58:22.341Z,96816.00
2022-09-12T18:02:19.809Z,96831.97
2022-09-12T18:06:17.046Z,96833.25
2022-09-12T18:10:14.859Z,96826.63
2022-09-12T18:14:14.122Z,96802.25
2022-09-12T18:18:11.549Z,96824.88
2022-09-12T18:22:09.603Z,96822.03
2022-09-12T18:26:10.603Z,96811.22
2022-09-12T18:30:21.094Z,96820.78
2022-09-12T18:34:18.942Z,96823.00
2022-09-12T18:38:16.052Z,96832.66
2022-09-12T18:42:13.057Z,96835.50
2022-09-12T18:46:15.147Z,96844.88
2022-09-12T18:50:12.296Z,96848.09
2022-09-12T18:54:14.161Z,96819.00
2022-09-12T18:58:11.352Z,96841.22
2022-09-12T19:02:15.651Z,96820.88
2022-09-12T19:06:22.833Z,96805.44
2022-09-12T19:10:19.857Z,96829.66
2022-09-12T19:14:23.134Z,96805.78
2022-09-12T19:18:20.148Z,96817.06
2022-09-12T19:22:17.219Z,96787.78
2022-09-12T19:26:16.166Z,96840.03
2022-09-12T19:30:13.149Z,96823.50
2022-09-12T19:34:12.182Z,96830.19
2022-09-12T19:38:09.536Z,96821.59
2022-09-12T19:42:06.538Z,96803.72
2022-09-12T19:46:03.930Z,96805.47
2022-09-12T19:50:00.902Z,96793.84
2022-09-12T19:54:01.169Z,96826.78
2022-09-12T19:57:58.442Z,96795.91
2022-09-12T20:01:55.739Z,96792.72
2022-09-12T20:05:52.770Z,96798.31
2022-09-12T20:09:49.907Z,96786.34
2022-09-12T20:13:47.494Z,96804.00
2022-09-12T20:17:44.717Z,96794.59
2022-09-12T20:21:41.887Z,96807.63
2022-09-12T20:25:38.882Z,96767.88
2022-09-12T20:29:35.910Z,96808.31
2022-09-12T20:33:32.930Z,96793.97
2022-09-12T20:37:30.409Z,96815.63
2022-09-12T20:41:31.345Z,96803.84
2022-09-12T20:45:28.361Z,96784.22
2022-09-12T20:49:25.299Z,96793.97
2022-09-12T20:53:22.226Z,96801.63
2022-09-12T20:57:19.362Z,96787.84
2022-09-12T21:01:17.214Z,96798.38
2022-09-12T21:05:14.331Z,96791.22
2022-09-12T21:09:11.380Z,96800.81
2022-09-12T21:13:13.057Z,96795.41
2022-09-12T21:17:10.054Z,96772.09
2022-09-12T21:21:07.639Z,96797.72
2022-09-12T21:25:05.743Z,96813.34
2022-09-12T21:29:02.795Z,96806.91
2022-09-12T21:32:59.749Z,96792.19
2022-09-12T21:36:56.695Z,96806.13
2022-09-12T21:41:14.010Z,96792.16
2022-09-12T21:45:11.488Z,96792.50
2022-09-12T21:49:08.458Z,96800.88
2022-09-12T21:53:05.475Z,96754.06
2022-09-12T21:57:02.460Z,96761.25
2022-09-12T22:01:00.968Z,96788.78
2022-09-12T22:04:58.068Z,96780.09
2022-09-12T22:08:56.093Z,96777.25
2022-09-12T22:12:53.208Z,96769.78
2022-09-12T22:16:50.124Z,96779.13
2022-09-12T22:20:47.148Z,96770.84
2022-09-12T22:24:44.407Z,96783.59
2022-09-12T22:28:42.744Z,96780.63
2022-09-12T22:32:39.678Z,96765.50
2022-09-12T22:36:38.906Z,96763.78
2022-09-12T22:40:36.384Z,96760.50
2022-09-12T22:44:33.376Z,96762.41
2022-09-12T22:48:30.291Z,96738.44
2022-09-12T22:52:27.246Z,96743.41
2022-09-12T22:56:24.936Z,96751.84
2022-09-12T23:00:22.301Z,96748.72
2022-09-12T23:04:19.256Z,96746.25
2022-09-12T23:08:19.030Z,96732.16
2022-09-12T23:12:16.126Z,96710.38
2022-09-12T23:16:23.305Z,96681.78
2022-09-12T23:20:20.457Z,96713.09
2022-09-12T23:24:18.008Z,96703.50
2022-09-12T23:28:15.000Z,96711.28
2022-09-12T23:32:12.079Z,96735.13
2022-09-12T23:36:14.231Z,96707.06
2022-09-12T23:40:11.582Z,96704.88
2022-09-12T23:44:10.759Z,96730.94
2022-09-12T23:48:07.759Z,96705.75
2022-09-12T23:52:04.892Z,96706.56
2022-09-12T23:56:03.371Z,96703.06
